createdAt,value
2023-04-30T00:01:30.294Z,6.72
2023-04-30T00:03:02.574Z,7.30
2023-04-30T00:04:34.880Z,6.47
2023-04-30T00:06:07.020Z,7.10
2023-04-30T00:07:42.708Z,7.03
2023-04-30T00:09:14.836Z,6.47
2023-04-30T00:10:46.948Z,6.55
2023-04-30T00:12:19.155Z,6.60
2023-04-30T00:13:51.531Z,6.32
2023-04-30T00:15:23.822Z,6.25
2023-04-30T00:16:55.952Z,6.55
2023-04-30T00:18:28.125Z,6.90
2023-04-30T00:20:00.185Z,6.32
2023-04-30T00:21:32.440Z,6.45
2023-04-30T00:23:04.578Z,6.70
2023-04-30T00:24:36.702Z,6.63
2023-04-30T00:26:08.770Z,6.18
2023-04-30T00:27:41.189Z,6.05
2023-04-30T00:29:13.358Z,6.47
2023-04-30T00:30:46.285Z,6.55
2023-04-30T00:32:18.377Z,6.25
2023-04-30T00:33:50.576Z,5.97
2023-04-30T00:35:22.693Z,6.25
2023-04-30T00:36:54.866Z,7.03
2023-04-30T00:38:27.131Z,6.35
2023-04-30T00:39:59.299Z,6.53
2023-04-30T00:41:32.353Z,6.32
2023-04-30T00:43:04.497Z,6.63
2023-04-30T00:44:36.574Z,6.63
2023-04-30T00:46:08.692Z,6.40
2023-04-30T00:47:41.604Z,6.25
2023-04-30T00:49:13.904Z,6.15
2023-04-30T00:50:46.064Z,6.78
2023-04-30T00:52:18.191Z,6.25
2023-04-30T00:53:50.222Z,6.40
2023-04-30T00:55:22.440Z,6.72
2023-04-30T00:56:54.610Z,6.75
2023-04-30T00:58:26.815Z,6.53
2023-04-30T00:59:59.584Z,6.30
2023-04-30T01:01:32.389Z,6.65
2023-04-30T01:03:04.720Z,6.95
2023-04-30T01:04:37.123Z,6.45
2023-04-30T01:06:09.146Z,6.45
2023-04-30T01:07:46.661Z,6.40
2023-04-30T01:09:19.140Z,7.22
2023-04-30T01:11:09.911Z,6.95
2023-04-30T01:12:58.181Z,7.05
2023-04-30T01:15:01.228Z,6.05
2023-04-30T01:16:37.036Z,5.72
2023-04-30T01:18:28.885Z,5.70
2023-04-30T01:20:01.549Z,6.90
2023-04-30T01:21:34.074Z,6.93
2023-04-30T01:23:27.611Z,6.20
2023-04-30T01:25:03.821Z,6.93
2023-04-30T01:27:04.018Z,6.75
2023-04-30T01:28:37.170Z,6.30
2023-04-30T01:30:09.702Z,6.85
2023-04-30T01:31:44.438Z,6.45
2023-04-30T01:33:16.650Z,6.03
2023-04-30T01:34:48.764Z,6.85
2023-04-30T01:36:39.514Z,6.65
2023-04-30T01:38:52.063Z,6.53
2023-04-30T01:40:41.244Z,6.03
2023-04-30T01:42:44.020Z,6.20
2023-04-30T01:44:34.272Z,6.47
2023-04-30T01:46:15.779Z,6.88
2023-04-30T01:47:52.850Z,6.20
2023-04-30T01:49:37.907Z,6.32
2023-04-30T01:51:17.354Z,6.40
2023-04-30T01:52:54.452Z,6.25
2023-04-30T01:54:44.954Z,6.25
2023-04-30T01:56:38.486Z,6.50
2023-04-30T01:58:13.337Z,6.03
2023-04-30T01:59:46.542Z,6.75
2023-04-30T02:02:50.625Z,6.85
2023-04-30T02:04:22.934Z,6.57
2023-04-30T02:05:55.755Z,6.50
2023-04-30T02:07:40.183Z,5.82
2023-04-30T02:09:12.261Z,6.13
2023-04-30T02:10:44.352Z,5.78
2023-04-30T02:12:16.401Z,6.22
2023-04-30T02:13:48.458Z,5.97
2023-04-30T02:15:20.790Z,5.90
2023-04-30T02:16:52.887Z,5.68
2023-04-30T02:18:24.894Z,5.72
2023-04-30T02:19:57.013Z,6.20
2023-04-30T02:21:29.206Z,6.50
2023-04-30T02:23:01.340Z,6.30
2023-04-30T02:24:33.389Z,6.28
2023-04-30T02:26:05.516Z,6.45
2023-04-30T02:27:37.564Z,6.05
2023-04-30T02:29:09.704Z,6.50
2023-04-30T02:32:15.177Z,6.15
2023-04-30T02:33:47.173Z,7.00
2023-04-30T02:35:21.566Z,6.20
2023-04-30T02:36:53.597Z,6.43
2023-04-30T02:38:25.580Z,7.38
2023-04-30T02:39:57.929Z,7.95
2023-04-30T02:41:30.937Z,7.40
2023-04-30T02:43:03.052Z,7.28
2023-04-30T02:44:35.418Z,7.80
2023-04-30T02:46:07.624Z,8.02
2023-04-30T02:47:39.919Z,7.95
2023-04-30T02:49:12.018Z,7.45
2023-04-30T02:50:44.092Z,7.93
2023-04-30T02:52:16.173Z,8.15
2023-04-30T02:53:48.302Z,8.18
2023-04-30T02:55:20.354Z,7.80
2023-04-30T02:56:52.427Z,7.82
2023-04-30T02:58:24.446Z,7.38
2023-04-30T02:59:56.641Z,7.20
2023-04-30T03:01:28.971Z,7.03
2023-04-30T03:03:01.398Z,6.63
2023-04-30T03:04:33.522Z,7.00
2023-04-30T03:06:05.750Z,6.22
2023-04-30T03:07:37.913Z,7.15
2023-04-30T03:09:10.028Z,6.97
2023-04-30T03:10:42.140Z,8.15
2023-04-30T03:12:16.818Z,8.10
2023-04-30T03:13:52.164Z,7.88
2023-04-30T03:15:24.475Z,8.00
2023-04-30T03:16:56.557Z,8.27
2023-04-30T03:18:29.714Z,7.85
2023-04-30T03:20:01.825Z,8.68
2023-04-30T03:21:34.020Z,8.77
2023-04-30T03:23:06.501Z,9.27
2023-04-30T03:24:38.663Z,8.70
2023-04-30T03:26:10.761Z,9.10
2023-04-30T03:27:42.900Z,9.35
2023-04-30T03:29:14.951Z,8.43
2023-04-30T03:30:47.313Z,8.52
2023-04-30T03:32:22.255Z,9.20
2023-04-30T03:33:54.491Z,8.85
2023-04-30T03:35:26.624Z,9.10
2023-04-30T03:36:58.754Z,9.27
2023-04-30T03:38:31.434Z,8.77
2023-04-30T03:41:35.342Z,9.10
2023-04-30T03:43:07.689Z,8.50
2023-04-30T03:44:39.790Z,8.85
2023-04-30T03:46:11.968Z,9.65
2023-04-30T03:47:44.292Z,9.48
2023-04-30T03:49:16.719Z,9.23
2023-04-30T03:50:48.883Z,8.90
2023-04-30T03:52:21.750Z,9.30
2023-04-30T03:53:53.808Z,9.52
2023-04-30T03:55:26.471Z,10.40
2023-04-30T03:56:58.615Z,9.93
2023-04-30T03:58:31.362Z,9.63
2023-04-30T04:00:08.125Z,9.65
2023-04-30T04:01:40.379Z,9.98
2023-04-30T04:03:13.221Z,10.93
2023-04-30T04:04:45.502Z,9.60
2023-04-30T04:06:17.600Z,9.30
2023-04-30T04:07:49.804Z,8.93
2023-04-30T04:09:21.936Z,9.45
2023-04-30T04:10:54.076Z,10.07
2023-04-30T04:12:26.294Z,10.27
2023-04-30T04:13:58.387Z,9.65
2023-04-30T04:15:30.478Z,10.20
2023-04-30T04:17:02.853Z,11.15
2023-04-30T04:18:34.955Z,10.23
2023-04-30T04:20:08.088Z,10.50
2023-04-30T04:21:40.350Z,10.73
2023-04-30T04:23:12.634Z,11.20
2023-04-30T04:24:44.722Z,10.25
2023-04-30T04:26:19.974Z,9.95
2023-04-30T04:27:52.846Z,11.85
2023-04-30T04:29:24.982Z,12.52
2023-04-30T04:30:57.058Z,12.18
2023-04-30T04:32:31.089Z,12.23
2023-04-30T04:34:04.915Z,11.90
2023-04-30T04:35:37.138Z,11.65
2023-04-30T04:37:09.242Z,11.20
2023-04-30T04:38:42.408Z,11.77
2023-04-30T04:40:14.515Z,11.50
2023-04-30T04:41:46.601Z,11.30
2023-04-30T04:43:18.845Z,10.93
2023-04-30T04:44:50.911Z,11.35
2023-04-30T04:46:23.724Z,11.55
2023-04-30T04:47:55.941Z,12.57
2023-04-30T04:49:28.130Z,12.18
2023-04-30T04:51:00.251Z,12.88
2023-04-30T04:52:32.382Z,12.27
2023-04-30T04:54:04.751Z,11.95
2023-04-30T04:55:36.844Z,11.45
2023-04-30T04:57:09.375Z,12.57
2023-04-30T04:58:42.790Z,11.30
2023-04-30T05:01:46.927Z,10.85
2023-04-30T05:03:21.358Z,11.00
2023-04-30T05:04:53.640Z,10.40
2023-04-30T05:06:25.807Z,11.85
2023-04-30T05:07:57.954Z,12.15
2023-04-30T05:09:30.104Z,10.57
2023-04-30T05:11:02.251Z,11.82
2023-04-30T05:12:34.419Z,12.02
2023-04-30T05:14:06.683Z,12.35
2023-04-30T05:15:38.963Z,12.77
2023-04-30T05:17:11.476Z,12.38
2023-04-30T05:18:43.584Z,13.43
2023-04-30T05:20:16.081Z,12.77
2023-04-30T05:21:48.135Z,12.57
2023-04-30T05:23:20.218Z,11.80
2023-04-30T05:24:53.660Z,11.38
2023-04-30T05:27:57.964Z,10.10
2023-04-30T05:29:30.239Z,10.15
2023-04-30T05:31:02.456Z,10.27
2023-04-30T05:32:34.798Z,9.57
2023-04-30T05:34:07.015Z,9.20
2023-04-30T05:35:39.142Z,9.50
2023-04-30T05:37:13.152Z,9.20
2023-04-30T05:38:45.468Z,8.30
2023-04-30T05:40:17.669Z,8.50
2023-04-30T05:41:51.572Z,8.57
2023-04-30T05:43:24.374Z,7.75
2023-04-30T05:44:56.536Z,8.25
2023-04-30T05:46:28.672Z,7.72
2023-04-30T05:48:02.390Z,7.57
2023-04-30T05:49:36.286Z,7.57
2023-04-30T05:51:08.566Z,7.35
2023-04-30T05:52:40.820Z,7.30
2023-04-30T05:54:12.978Z,6.88
2023-04-30T05:55:45.076Z,6.70
2023-04-30T05:57:17.547Z,6.45
2023-04-30T05:58:51.562Z,6.53
2023-04-30T06:00:24.113Z,6.95
2023-04-30T06:01:56.277Z,6.28
2023-04-30T06:03:30.944Z,6.68
2023-04-30T06:05:03.788Z,6.45
2023-04-30T06:06:36.340Z,6.88
2023-04-30T06:08:08.544Z,6.43
2023-04-30T06:09:40.930Z,7.22
2023-04-30T06:11:13.742Z,6.50
2023-04-30T06:12:45.847Z,7.15
2023-04-30T06:14:18.946Z,6.15
2023-04-30T06:15:51.145Z,6.50
2023-04-30T06:17:23.308Z,6.47
2023-04-30T06:18:55.483Z,6.88
2023-04-30T06:20:27.854Z,6.40
2023-04-30T06:22:00.066Z,6.32
2023-04-30T06:23:32.256Z,6.43
2023-04-30T06:25:04.616Z,6.70
2023-04-30T06:26:38.324Z,6.90
2023-04-30T06:28:11.004Z,6.53
2023-04-30T06:29:43.074Z,6.93
2023-04-30T06:31:15.290Z,6.53
2023-04-30T06:32:47.455Z,6.60
2023-04-30T06:34:20.395Z,6.30
2023-04-30T06:35:55.705Z,6.82
2023-04-30T06:37:27.864Z,6.57
2023-04-30T06:39:00.119Z,6.90
2023-04-30T06:40:32.312Z,6.05
2023-04-30T06:42:04.748Z,6.22
2023-04-30T06:43:36.963Z,6.00
2023-04-30T06:45:09.702Z,6.32
2023-04-30T06:46:41.939Z,6.20
2023-04-30T06:48:14.064Z,5.30
2023-04-30T06:49:46.259Z,5.85
2023-04-30T06:51:18.366Z,5.03
2023-04-30T06:52:50.618Z,4.85
2023-04-30T06:54:27.124Z,4.80
2023-04-30T06:55:59.265Z,5.53
2023-04-30T06:57:32.253Z,4.95
2023-04-30T06:59:04.408Z,5.55
2023-04-30T07:00:36.607Z,5.60
2023-04-30T07:02:08.762Z,5.30
2023-04-30T07:03:41.089Z,4.70
2023-04-30T07:05:13.564Z,5.13
2023-04-30T07:06:46.083Z,4.70
2023-04-30T07:08:18.271Z,5.32
2023-04-30T07:09:51.792Z,5.05
2023-04-30T07:11:25.412Z,4.88
2023-04-30T07:12:57.799Z,4.20
2023-04-30T07:14:29.918Z,4.57
2023-04-30T07:16:02.080Z,4.53
2023-04-30T07:17:34.398Z,4.38
2023-04-30T07:19:06.649Z,4.70
2023-04-30T07:20:38.780Z,4.85
2023-04-30T07:22:10.942Z,4.10
2023-04-30T07:23:44.592Z,3.78
2023-04-30T07:25:16.947Z,4.22
2023-04-30T07:26:49.242Z,3.95
2023-04-30T07:28:21.372Z,4.32
2023-04-30T07:29:53.707Z,4.70
2023-04-30T07:31:26.410Z,4.00
2023-04-30T07:32:58.620Z,4.25
2023-04-30T07:34:33.663Z,4.30
2023-04-30T07:36:06.255Z,4.47
2023-04-30T07:37:40.470Z,4.00
2023-04-30T07:39:13.311Z,4.55
2023-04-30T07:40:45.600Z,3.97
2023-04-30T07:42:17.716Z,4.63
2023-04-30T07:43:49.857Z,4.18
2023-04-30T07:45:22.043Z,4.20
2023-04-30T07:46:54.290Z,4.20
2023-04-30T07:48:26.550Z,4.30
2023-04-30T07:49:58.865Z,4.10
2023-04-30T07:51:31.350Z,4.20
2023-04-30T07:53:03.689Z,4.67
2023-04-30T07:54:36.908Z,4.80
2023-04-30T07:56:09.059Z,4.10
2023-04-30T07:57:41.767Z,4.78
2023-04-30T07:59:13.906Z,4.10
2023-04-30T08:00:46.389Z,4.55
2023-04-30T08:02:18.765Z,5.17
2023-04-30T08:03:51.079Z,4.00
2023-04-30T08:05:23.455Z,4.57
2023-04-30T08:06:55.595Z,4.07
2023-04-30T08:08:27.871Z,4.60
2023-04-30T08:10:00.092Z,4.60
2023-04-30T08:11:32.314Z,4.63
2023-04-30T08:13:05.547Z,4.10
2023-04-30T08:14:37.847Z,4.50
2023-04-30T08:16:10.077Z,4.20
2023-04-30T08:17:42.498Z,3.83
2023-04-30T08:19:14.952Z,4.50
2023-04-30T08:20:47.317Z,4.30
2023-04-30T08:22:19.493Z,3.85
2023-04-30T08:23:52.067Z,3.80
2023-04-30T08:25:24.215Z,4.10
2023-04-30T08:26:56.467Z,4.50
2023-04-30T08:28:28.634Z,4.40
2023-04-30T08:30:00.838Z,4.40
2023-04-30T08:31:33.118Z,4.60
2023-04-30T08:33:05.716Z,4.63
2023-04-30T08:34:38.063Z,4.82
2023-04-30T08:36:10.221Z,4.65
2023-04-30T08:37:42.327Z,4.78
2023-04-30T08:39:14.645Z,4.53
2023-04-30T08:40:53.590Z,4.68
2023-04-30T08:42:26.938Z,4.05
2023-04-30T08:45:37.459Z,4.28
2023-04-30T08:47:13.558Z,4.32
2023-04-30T08:48:45.848Z,4.53
2023-04-30T08:50:18.128Z,4.38
2023-04-30T08:51:50.646Z,4.63
2023-04-30T08:53:22.867Z,4.10
2023-04-30T08:54:55.673Z,4.30
2023-04-30T08:56:28.067Z,4.43
2023-04-30T08:58:00.247Z,4.50
2023-04-30T08:59:32.537Z,3.90
2023-04-30T09:01:08.487Z,4.68
2023-04-30T09:02:42.901Z,4.13
2023-04-30T09:04:15.250Z,3.78
2023-04-30T09:05:47.520Z,4.60
2023-04-30T09:07:21.212Z,4.03
2023-04-30T09:08:54.852Z,4.10
2023-04-30T09:10:27.233Z,4.55
2023-04-30T09:12:19.392Z,4.23
2023-04-30T09:13:53.802Z,3.72
2023-04-30T09:15:26.645Z,4.10
2023-04-30T09:17:00.232Z,3.80
2023-04-30T09:18:39.972Z,4.00
2023-04-30T09:20:13.656Z,4.20
2023-04-30T09:21:47.468Z,3.85
2023-04-30T09:23:19.872Z,4.50
2023-04-30T09:24:52.331Z,4.20
2023-04-30T09:26:39.869Z,4.00
2023-04-30T09:28:14.107Z,4.70
2023-04-30T09:29:47.109Z,4.50
2023-04-30T09:31:22.578Z,4.25
2023-04-30T09:32:57.657Z,3.72
2023-04-30T09:34:38.764Z,4.00
2023-04-30T09:36:11.610Z,4.22
2023-04-30T09:37:43.814Z,3.90
2023-04-30T09:39:17.886Z,4.03
2023-04-30T09:40:50.188Z,3.70
2023-04-30T09:42:23.021Z,4.10
2023-04-30T09:43:56.411Z,7.55
2023-04-30T09:47:00.650Z,5.00
2023-04-30T09:48:32.936Z,4.13
2023-04-30T09:50:06.569Z,7.47
2023-04-30T09:51:57.408Z,4.93
2023-04-30T09:53:29.753Z,4.60
2023-04-30T09:55:01.995Z,3.55
2023-04-30T09:56:36.413Z,3.85
2023-04-30T09:58:08.653Z,3.80
2023-04-30T09:59:45.046Z,3.53
2023-04-30T10:01:18.710Z,3.63
2023-04-30T10:02:51.545Z,3.78
2023-04-30T10:04:23.839Z,3.55
2023-04-30T10:05:59.042Z,3.75
2023-04-30T10:07:36.437Z,3.50
2023-04-30T10:09:09.978Z,3.50
2023-04-30T10:10:44.127Z,3.72
2023-04-30T10:12:18.970Z,3.58
2023-04-30T10:13:55.356Z,3.20
2023-04-30T10:15:34.345Z,3.10
2023-04-30T10:17:14.099Z,2.95
2023-04-30T10:18:47.306Z,2.72
2023-04-30T10:20:19.820Z,3.13
2023-04-30T10:21:52.297Z,2.85
2023-04-30T10:23:25.105Z,3.40
2023-04-30T10:24:57.469Z,3.20
2023-04-30T10:26:30.937Z,2.88
2023-04-30T10:28:04.879Z,3.42
2023-04-30T10:29:37.422Z,3.10
2023-04-30T10:31:11.495Z,3.50
2023-04-30T10:33:17.026Z,3.00
2023-04-30T10:36:32.357Z,2.80
2023-04-30T10:38:12.611Z,3.13
2023-04-30T10:39:44.873Z,2.78
2023-04-30T10:41:20.667Z,3.13
2023-04-30T10:42:55.114Z,2.70
2023-04-30T10:44:27.951Z,2.83
2023-04-30T10:46:00.540Z,3.45
2023-04-30T10:47:33.123Z,2.80
2023-04-30T10:49:05.873Z,3.08
2023-04-30T10:50:46.265Z,3.10
2023-04-30T10:52:28.246Z,2.60
2023-04-30T10:54:00.987Z,2.70
2023-04-30T10:55:33.943Z,2.60
2023-04-30T10:57:18.360Z,3.13
2023-04-30T10:58:51.648Z,2.90
2023-04-30T11:02:01.963Z,3.08
2023-04-30T11:03:35.779Z,2.90
2023-04-30T11:05:08.242Z,2.33
2023-04-30T11:07:11.345Z,2.90
2023-04-30T11:08:46.175Z,2.72
2023-04-30T11:10:25.789Z,2.72
2023-04-30T11:12:30.598Z,2.75
2023-04-30T11:15:46.333Z,2.28
2023-04-30T11:19:12.511Z,2.55
2023-04-30T11:20:52.223Z,2.90
2023-04-30T11:22:25.449Z,3.20
2023-04-30T11:25:46.581Z,2.58
2023-04-30T11:27:26.230Z,2.30
2023-04-30T11:29:00.748Z,1.98
2023-04-30T11:30:33.299Z,2.28
2023-04-30T11:32:06.053Z,2.03
2023-04-30T11:33:41.836Z,2.53
2023-04-30T11:35:16.769Z,2.33
2023-04-30T11:36:48.978Z,2.00
2023-04-30T11:38:23.461Z,2.10
2023-04-30T11:39:56.090Z,2.25
2023-04-30T11:41:30.036Z,2.40
2023-04-30T11:43:02.169Z,2.30
2023-04-30T11:44:34.775Z,2.90
2023-04-30T11:46:15.246Z,2.72
2023-04-30T11:47:49.229Z,2.30
2023-04-30T11:49:21.720Z,2.40
2023-04-30T11:50:53.909Z,2.20
2023-04-30T11:52:27.214Z,2.55
2023-04-30T11:55:31.693Z,2.72
2023-04-30T11:57:04.821Z,2.43
2023-04-30T11:58:41.056Z,2.50
2023-04-30T12:00:18.661Z,2.65
2023-04-30T12:01:50.927Z,2.40
2023-04-30T12:03:23.126Z,2.75
2023-04-30T12:04:55.411Z,2.55
2023-04-30T12:06:29.235Z,2.30
2023-04-30T12:08:05.134Z,2.50
2023-04-30T12:09:54.584Z,2.50
2023-04-30T12:11:29.474Z,2.47
2023-04-30T12:13:01.708Z,2.78
2023-04-30T12:14:37.038Z,2.53
2023-04-30T12:16:09.612Z,2.10
2023-04-30T12:17:42.091Z,2.38
2023-04-30T12:19:14.600Z,2.45
2023-04-30T12:20:46.918Z,2.63
2023-04-30T12:22:19.135Z,2.67
2023-04-30T12:23:51.296Z,2.53
2023-04-30T12:25:24.011Z,3.00
2023-04-30T12:26:56.348Z,2.55
2023-04-30T12:28:28.750Z,2.80
2023-04-30T12:30:04.936Z,2.60
2023-04-30T12:31:38.364Z,2.95
2023-04-30T12:33:11.189Z,2.63
2023-04-30T12:34:43.553Z,2.60
2023-04-30T12:36:16.036Z,2.40
2023-04-30T12:37:53.310Z,2.85
2023-04-30T12:39:25.492Z,2.53
2023-04-30T12:40:58.067Z,2.50
2023-04-30T12:42:36.445Z,3.13
2023-04-30T12:44:42.577Z,2.80
2023-04-30T12:46:26.870Z,2.72
2023-04-30T12:47:59.156Z,2.80
2023-04-30T12:49:34.799Z,3.60
2023-04-30T12:51:07.540Z,2.90
2023-04-30T12:52:45.062Z,2.70
2023-04-30T12:54:33.251Z,2.50
2023-04-30T12:56:24.409Z,2.60
2023-04-30T12:58:09.341Z,2.72
2023-04-30T12:59:59.058Z,2.60
2023-04-30T13:01:31.420Z,3.88
2023-04-30T13:03:04.699Z,2.53
2023-04-30T13:06:10.774Z,2.40
2023-04-30T13:07:43.070Z,2.33
2023-04-30T13:09:15.804Z,2.25
2023-04-30T13:10:49.049Z,2.70
2023-04-30T13:13:55.389Z,2.38
2023-04-30T13:15:27.826Z,2.55
2023-04-30T13:17:00.331Z,2.07
2023-04-30T13:18:33.528Z,2.22
2023-04-30T13:21:38.110Z,2.17
2023-04-30T13:23:12.328Z,2.17
2023-04-30T13:24:44.605Z,2.30
2023-04-30T13:26:16.905Z,2.20
2023-04-30T13:27:49.243Z,2.13
2023-04-30T13:29:21.494Z,2.30
2023-04-30T13:30:53.681Z,2.92
2023-04-30T13:32:26.007Z,3.03
2023-04-30T13:33:58.274Z,2.30
2023-04-30T13:35:30.548Z,2.50
2023-04-30T13:37:02.783Z,2.45
2023-04-30T13:38:35.056Z,2.33
2023-04-30T13:40:08.775Z,3.63
2023-04-30T13:41:41.019Z,3.35
2023-04-30T13:43:13.866Z,3.13
2023-04-30T13:44:48.201Z,3.60
2023-04-30T13:46:20.486Z,2.50
2023-04-30T13:47:52.693Z,2.60
2023-04-30T13:49:24.946Z,2.33
2023-04-30T13:50:57.196Z,2.10
2023-04-30T13:52:29.553Z,2.13
2023-04-30T13:54:01.923Z,2.37
2023-04-30T13:55:34.089Z,2.00
2023-04-30T13:57:06.937Z,2.28
2023-04-30T13:58:39.554Z,1.75
2023-04-30T14:00:12.400Z,2.20
2023-04-30T14:01:44.893Z,2.25
2023-04-30T14:03:17.885Z,2.20
2023-04-30T14:05:02.522Z,1.80
2023-04-30T14:06:39.115Z,1.48
2023-04-30T14:08:11.683Z,1.60
2023-04-30T14:09:43.949Z,1.55
2023-04-30T14:11:16.153Z,1.60
2023-04-30T14:12:50.549Z,1.65
2023-04-30T14:14:22.847Z,1.90
2023-04-30T14:15:56.432Z,2.00
2023-04-30T14:17:30.093Z,2.05
2023-04-30T14:19:02.416Z,2.08
2023-04-30T14:20:34.607Z,2.20
2023-04-30T14:22:06.838Z,1.80
2023-04-30T14:23:39.694Z,2.20
2023-04-30T14:25:13.217Z,2.13
2023-04-30T14:26:47.778Z,1.90
2023-04-30T14:28:19.956Z,1.83
2023-04-30T14:29:52.277Z,2.05
2023-04-30T14:31:28.294Z,1.87
2023-04-30T14:33:00.385Z,1.80
2023-04-30T14:34:33.198Z,2.25
2023-04-30T14:36:06.377Z,2.28
2023-04-30T14:37:38.655Z,2.22
2023-04-30T14:39:10.750Z,2.30
2023-04-30T14:40:44.420Z,2.42
2023-04-30T14:42:16.744Z,2.00
2023-04-30T14:43:48.980Z,1.90
2023-04-30T14:45:21.230Z,2.00
2023-04-30T14:46:53.662Z,2.00
2023-04-30T14:48:26.555Z,2.30
2023-04-30T14:49:59.348Z,2.30
2023-04-30T14:51:32.658Z,2.35
2023-04-30T14:54:36.783Z,2.20
2023-04-30T14:56:09.190Z,2.47
2023-04-30T14:57:41.485Z,2.30
2023-04-30T14:59:13.796Z,2.33
2023-04-30T15:00:46.613Z,1.97
2023-04-30T15:02:18.864Z,2.10
2023-04-30T15:03:51.493Z,2.10
2023-04-30T15:05:24.023Z,2.65
2023-04-30T15:06:56.234Z,2.30
2023-04-30T15:08:28.637Z,2.00
2023-04-30T15:10:01.252Z,2.00
2023-04-30T15:11:33.375Z,1.95
2023-04-30T15:13:05.572Z,2.00
2023-04-30T15:14:37.775Z,1.67
2023-04-30T15:16:10.303Z,1.70
2023-04-30T15:17:42.660Z,2.20
2023-04-30T15:19:14.869Z,2.27
2023-04-30T15:20:47.648Z,1.95
2023-04-30T15:22:19.706Z,2.25
2023-04-30T15:23:51.952Z,2.10
2023-04-30T15:25:24.554Z,2.15
2023-04-30T15:26:57.033Z,2.00
2023-04-30T15:28:30.384Z,2.25
2023-04-30T15:30:02.457Z,2.47
2023-04-30T15:31:35.960Z,2.13
2023-04-30T15:33:08.161Z,1.80
2023-04-30T15:34:40.439Z,2.30
2023-04-30T15:36:12.737Z,2.25
2023-04-30T15:37:45.365Z,2.47
2023-04-30T15:39:18.311Z,2.17
2023-04-30T15:40:50.552Z,2.20
2023-04-30T15:42:22.767Z,2.70
2023-04-30T15:43:54.888Z,2.38
2023-04-30T15:45:28.473Z,2.10
2023-04-30T15:47:00.810Z,2.10
2023-04-30T15:48:33.124Z,2.17
2023-04-30T15:50:05.958Z,2.00
2023-04-30T15:51:38.986Z,1.83
2023-04-30T15:53:11.425Z,1.98
2023-04-30T15:54:43.710Z,2.00
2023-04-30T15:56:15.870Z,1.70
2023-04-30T15:59:20.006Z,2.10
2023-04-30T16:00:52.268Z,2.50
2023-04-30T16:02:24.412Z,2.40
2023-04-30T16:03:57.005Z,2.10
2023-04-30T16:05:30.278Z,3.30
2023-04-30T16:08:34.657Z,2.42
2023-04-30T16:10:07.451Z,2.60
2023-04-30T16:11:40.621Z,2.45
2023-04-30T16:13:12.892Z,2.83
2023-04-30T16:14:45.089Z,4.95
2023-04-30T16:16:17.508Z,3.83
2023-04-30T16:17:49.863Z,3.22
2023-04-30T16:19:22.119Z,3.67
2023-04-30T16:20:55.050Z,4.10
2023-04-30T16:22:30.750Z,3.95
2023-04-30T16:24:02.842Z,4.60
2023-04-30T16:25:35.639Z,5.63
2023-04-30T16:27:08.811Z,5.65
2023-04-30T16:28:41.032Z,5.50
2023-04-30T16:30:13.629Z,4.30
2023-04-30T16:31:45.974Z,3.60
2023-04-30T16:33:18.180Z,2.97
2023-04-30T16:34:50.276Z,2.38
2023-04-30T16:36:22.746Z,4.00
2023-04-30T16:37:55.580Z,3.60
2023-04-30T16:39:27.689Z,2.90
2023-04-30T16:41:00.162Z,3.20
2023-04-30T16:42:32.399Z,2.83
2023-04-30T16:44:04.471Z,2.55
2023-04-30T16:45:36.554Z,3.30
2023-04-30T16:47:09.377Z,2.83
2023-04-30T16:48:41.435Z,2.80
2023-04-30T16:50:13.492Z,3.00
2023-04-30T16:51:46.367Z,3.58
2023-04-30T16:53:18.461Z,3.38
2023-04-30T16:54:50.590Z,3.00
2023-04-30T16:57:54.549Z,3.30
2023-04-30T16:59:27.429Z,3.13
2023-04-30T17:00:59.750Z,3.40
2023-04-30T17:02:32.006Z,3.33
2023-04-30T17:04:04.857Z,4.03
2023-04-30T17:05:37.513Z,5.20
2023-04-30T17:07:09.571Z,5.47
2023-04-30T17:08:41.827Z,5.13
2023-04-30T17:10:14.886Z,5.70
2023-04-30T17:13:20.553Z,3.63
2023-04-30T17:14:52.652Z,3.40
2023-04-30T17:16:24.840Z,3.30
2023-04-30T17:17:58.234Z,3.78
2023-04-30T17:21:02.373Z,3.50
2023-04-30T17:22:34.566Z,3.63
2023-04-30T17:24:07.266Z,3.28
2023-04-30T17:25:39.635Z,3.28
2023-04-30T17:27:12.165Z,2.60
2023-04-30T17:28:44.384Z,2.83
2023-04-30T17:30:16.602Z,2.83
2023-04-30T17:31:48.958Z,2.97
2023-04-30T17:33:21.206Z,5.60
2023-04-30T17:34:53.578Z,4.63
2023-04-30T17:36:25.839Z,2.70
2023-04-30T17:37:57.901Z,3.00
2023-04-30T17:39:34.038Z,2.80
2023-04-30T17:41:06.339Z,3.13
2023-04-30T17:42:39.460Z,2.95
2023-04-30T17:44:12.196Z,3.40
2023-04-30T17:45:44.729Z,4.18
2023-04-30T17:47:16.889Z,3.75
2023-04-30T17:48:49.048Z,3.88
2023-04-30T17:50:21.611Z,4.57
2023-04-30T17:51:53.734Z,4.18
2023-04-30T17:53:25.983Z,3.70
2023-04-30T17:55:01.104Z,3.40
2023-04-30T17:56:33.936Z,3.65
2023-04-30T17:58:07.356Z,3.63
2023-04-30T18:01:11.572Z,3.20
2023-04-30T18:02:44.974Z,3.35
2023-04-30T18:04:22.911Z,3.55
2023-04-30T18:05:55.991Z,3.72
2023-04-30T18:07:28.760Z,3.80
2023-04-30T18:09:02.256Z,3.50
2023-04-30T18:10:34.575Z,3.53
2023-04-30T18:12:06.808Z,3.38
2023-04-30T18:13:39.131Z,3.67
2023-04-30T18:15:13.571Z,3.70
2023-04-30T18:16:45.842Z,3.55
2023-04-30T18:18:20.961Z,3.92
2023-04-30T18:19:53.323Z,4.95
2023-04-30T18:21:25.956Z,4.70
2023-04-30T18:22:58.287Z,4.20
2023-04-30T18:24:30.560Z,4.68
2023-04-30T18:26:03.238Z,4.22
2023-04-30T18:27:35.482Z,4.15
2023-04-30T18:29:08.435Z,4.07
2023-04-30T18:30:41.521Z,4.07
2023-04-30T18:32:14.095Z,5.20
2023-04-30T18:33:46.431Z,4.85
2023-04-30T18:35:18.849Z,5.50
2023-04-30T18:36:55.793Z,5.33
2023-04-30T18:38:27.951Z,22.30
2023-04-30T18:40:00.942Z,31.67
2023-04-30T18:41:33.208Z,9.65
2023-04-30T18:43:05.750Z,5.60
2023-04-30T18:56:24.771Z,4.93
2023-04-30T18:57:57.550Z,4.97
2023-04-30T18:59:29.772Z,4.88
2023-04-30T19:01:02.226Z,4.50
2023-04-30T19:02:34.725Z,4.90
2023-04-30T19:04:07.010Z,4.60
2023-04-30T19:05:39.800Z,3.97
2023-04-30T19:07:12.569Z,4.00
2023-04-30T19:08:46.564Z,4.03
2023-04-30T19:10:20.477Z,4.40
2023-04-30T19:11:53.572Z,4.18
2023-04-30T19:13:25.836Z,4.68
2023-04-30T19:14:58.108Z,4.00
2023-04-30T19:16:31.025Z,4.20
2023-04-30T19:18:03.451Z,4.45
2023-04-30T19:19:36.280Z,4.30
2023-04-30T19:21:09.318Z,3.92
2023-04-30T19:22:42.322Z,4.00
2023-04-30T19:24:14.679Z,4.22
2023-04-30T19:25:48.212Z,3.88
2023-04-30T19:27:20.861Z,3.53
2023-04-30T19:28:53.567Z,3.83
2023-04-30T19:30:25.871Z,4.15
2023-04-30T19:31:59.612Z,3.33
2023-04-30T19:33:37.996Z,3.80
2023-04-30T19:35:10.408Z,3.70
2023-04-30T19:36:44.407Z,3.90
2023-04-30T19:38:17.084Z,3.80
2023-04-30T19:39:49.328Z,3.45
2023-04-30T19:41:22.432Z,4.00
2023-04-30T19:42:54.925Z,3.60
2023-04-30T19:44:29.717Z,4.10
2023-04-30T19:46:02.941Z,4.00
2023-04-30T19:47:35.199Z,4.00
2023-04-30T19:49:08.714Z,3.72
2023-04-30T19:52:14.890Z,4.93
2023-04-30T19:53:47.655Z,4.70
2023-04-30T19:55:20.022Z,3.90
2023-04-30T19:56:53.215Z,3.80
2023-04-30T19:58:25.523Z,4.20
2023-04-30T19:59:58.220Z,4.10
2023-04-30T20:01:30.662Z,4.20
2023-04-30T20:03:04.942Z,4.20
2023-04-30T20:04:37.634Z,4.30
2023-04-30T20:06:10.368Z,4.28
2023-04-30T20:07:42.673Z,4.75
2023-04-30T20:09:16.013Z,4.40
2023-04-30T20:12:20.731Z,4.45
2023-04-30T20:13:54.535Z,5.10
2023-04-30T20:15:26.703Z,5.32
2023-04-30T20:16:59.274Z,5.20
2023-04-30T20:18:31.498Z,4.80
2023-04-30T20:20:05.901Z,4.45
2023-04-30T20:21:38.155Z,4.72
2023-04-30T20:23:17.314Z,5.18
2023-04-30T20:24:50.201Z,5.60
2023-04-30T20:26:22.401Z,5.82
2023-04-30T20:27:56.274Z,5.72
2023-04-30T20:29:29.754Z,6.07
2023-04-30T20:31:02.906Z,5.97
2023-04-30T20:32:35.960Z,6.00
2023-04-30T20:35:49.158Z,5.20
2023-04-30T20:37:21.252Z,5.22
2023-04-30T20:38:54.802Z,5.30
2023-04-30T20:40:28.336Z,5.25
2023-04-30T20:42:01.845Z,5.05
2023-04-30T20:43:34.033Z,4.60
2023-04-30T20:45:06.799Z,4.60
2023-04-30T20:46:39.318Z,5.07
2023-04-30T20:48:11.762Z,5.38
2023-04-30T20:49:45.516Z,4.82
2023-04-30T20:51:17.751Z,5.00
2023-04-30T20:52:50.164Z,4.85
2023-04-30T20:54:22.445Z,4.70
2023-04-30T20:56:00.323Z,4.80
2023-04-30T20:57:32.470Z,4.35
2023-04-30T20:59:06.324Z,4.70
2023-04-30T21:00:39.096Z,4.80
2023-04-30T21:02:11.577Z,4.72
2023-04-30T21:03:43.910Z,4.60
2023-04-30T21:05:16.429Z,5.03
2023-04-30T21:06:49.037Z,4.50
2023-04-30T21:08:21.404Z,4.80
2023-04-30T21:09:53.794Z,4.38
2023-04-30T21:11:26.808Z,4.53
2023-04-30T21:12:59.257Z,4.57
2023-04-30T21:14:32.268Z,4.65
2023-04-30T21:16:05.540Z,4.32
2023-04-30T21:17:37.946Z,4.30
2023-04-30T21:19:10.420Z,4.50
2023-04-30T21:20:42.547Z,5.13
2023-04-30T21:22:14.932Z,4.45
2023-04-30T21:23:48.343Z,4.88
2023-04-30T21:25:20.662Z,4.72
2023-04-30T21:26:54.737Z,5.22
2023-04-30T21:28:27.281Z,4.50
2023-04-30T21:29:59.503Z,4.90
2023-04-30T21:31:32.297Z,4.50
2023-04-30T21:33:05.290Z,4.82
2023-04-30T21:34:37.609Z,5.25
2023-04-30T21:36:09.675Z,4.85
2023-04-30T21:37:42.550Z,4.47